Terminal Aerodrome Forecast
Issued by NWS Blacksburg, VA

Home | Current Version | Previous Version | Text Only | Print | Product List | Glossary On
Versions: 1 2 3 4 5 6 7 8 9 10 11 12 13 14 15 16 17 18 19 20 21 22 23 24 25 26 27 28 29 30 31 32 33 34 35 36 37 38 39 40 41 42 43 44 45
000
FTUS41 KRNK 031215 AAA
TAFBLF
TAF AMD
KBLF 031215Z 0312/0412 15005KT 2SM RA BR FEW007 BKN035
     FM031235 13005KT 5SM -SHRA BR BKN008
     FM031430 14006KT 5SM -SHRA BR SCT010 OVC013
     FM031800 16006KT 4SM -SHRA BR VCTS BKN007 BKN013 OVC023CB
      TEMPO 0318/0322 1SM +TSRA BR BKN007 OVC013CB
     FM032200 23005KT 4SM -SHRA BR BKN004 OVC012
     FM040400 24006KT 3SM BR VCSH OVC003
      TEMPO 0408/0412 1/2SM FG=

USA.gov is the U.S. government's official web portal to all federal, state and local government web resources and services.